sensor_id;sensor_type;location;lat;lon;timestamp;temperature;humidity
64689;DHT22;62504;46.070;14.492;2023-09-18T00:01:38;19.60;99.90
64689;DHT22;62504;46.070;14.492;2023-09-18T00:04:05;19.50;99.90
64689;DHT22;62504;46.070;14.492;2023-09-18T00:06:32;19.60;99.90
64689;DHT22;62504;46.070;14.492;2023-09-18T00:08:58;19.60;99.90
64689;DHT22;62504;46.070;14.492;2023-09-18T00:11:24;19.60;99.90
64689;DHT22;62504;46.070;14.492;2023-09-18T00:13:50;19.50;99.90
64689;DHT22;62504;46.070;14.492;2023-09-18T00:16:16;19.50;99.90
64689;DHT22;62504;46.070;14.492;2023-09-18T00:18:42;19.50;99.90
64689;DHT22;62504;46.070;14.492;2023-09-18T00:21:10;19.50;99.90
64689;DHT22;62504;46.070;14.492;2023-09-18T00:23:36;19.50;99.90
64689;DHT22;62504;46.070;14.492;2023-09-18T00:26:02;19.40;99.90
64689;DHT22;62504;46.070;14.492;2023-09-18T00:28:28;19.40;99.90
64689;DHT22;62504;46.070;14.492;2023-09-18T00:30:54;19.40;99.90
64689;DHT22;62504;46.070;14.492;2023-09-18T00:33:19;19.40;99.90
64689;DHT22;62504;46.070;14.492;2023-09-18T00:35:49;19.50;99.90
64689;DHT22;62504;46.070;14.492;2023-09-18T00:38:16;19.30;99.90
64689;DHT22;62504;46.070;14.492;2023-09-18T00:40:42;19.40;99.90
64689;DHT22;62504;46.070;14.492;2023-09-18T00:43:08;19.40;99.90
64689;DHT22;62504;46.070;14.492;2023-09-18T00:45:39;19.40;99.90
64689;DHT22;62504;46.070;14.492;2023-09-18T00:48:06;19.40;99.90
64689;DHT22;62504;46.070;14.492;2023-09-18T00:50:32;19.40;99.90
64689;DHT22;62504;46.070;14.492;2023-09-18T00:52:59;19.30;99.90
64689;DHT22;62504;46.070;14.492;2023-09-18T00:55:25;19.30;99.90
64689;DHT22;62504;46.070;14.492;2023-09-18T00:57:50;19.30;99.90
64689;DHT22;62504;46.070;14.492;2023-09-18T01:00:16;19.30;99.90
64689;DHT22;62504;46.070;14.492;2023-09-18T01:02:43;19.30;99.90
64689;DHT22;62504;46.070;14.492;2023-09-18T01:05:10;19.30;99.90
64689;DHT22;62504;46.070;14.492;2023-09-18T01:07:36;19.20;99.90
64689;DHT22;62504;46.070;14.492;2023-09-18T01:10:02;19.20;99.90
64689;DHT22;62504;46.070;14.492;2023-09-18T01:12:55;19.30;99.90
64689;DHT22;62504;46.070;14.492;2023-09-18T01:15:30;19.10;99.90
64689;DHT22;62504;46.070;14.492;2023-09-18T01:17:59;19.10;99.90
64689;DHT22;62504;46.070;14.492;2023-09-18T01:20:24;19.10;99.90
64689;DHT22;62504;46.070;14.492;2023-09-18T01:22:51;19.20;99.90
64689;DHT22;62504;46.070;14.492;2023-09-18T01:25:16;19.20;99.90
64689;DHT22;62504;46.070;14.492;2023-09-18T01:27:42;19.20;99.90
64689;DHT22;62504;46.070;14.492;2023-09-18T01:30:08;19.20;99.90
64689;DHT22;62504;46.070;14.492;2023-09-18T01:32:35;19.20;99.90
64689;DHT22;62504;46.070;14.492;2023-09-18T01:35:03;19.20;99.90
64689;DHT22;62504;46.070;14.492;2023-09-18T01:37:31;19.20;99.90
64689;DHT22;62504;46.070;14.492;2023-09-18T01:39:58;19.20;99.90
64689;DHT22;62504;46.070;14.492;2023-09-18T01:42:26;19.20;99.90
64689;DHT22;62504;46.070;14.492;2023-09-18T01:44:53;19.20;99.90
64689;DHT22;62504;46.070;14.492;2023-09-18T01:47:20;19.20;99.90
64689;DHT22;62504;46.070;14.492;2023-09-18T01:49:47;19.10;99.90
64689;DHT22;62504;46.070;14.492;2023-09-18T01:52:13;19.10;99.90
64689;DHT22;62504;46.070;14.492;2023-09-18T01:54:39;19.10;99.90
64689;DHT22;62504;46.070;14.492;2023-09-18T01:57:05;19.10;99.90
64689;DHT22;62504;46.070;14.492;2023-09-18T01:59:33;19.00;99.90
64689;DHT22;62504;46.070;14.492;2023-09-18T02:01:59;19.10;99.90
64689;DHT22;62504;46.070;14.492;2023-09-18T02:04:25;19.00;99.90
64689;DHT22;62504;46.070;14.492;2023-09-18T02:06:53;19.10;99.90
64689;DHT22;62504;46.070;14.492;2023-09-18T02:09:19;18.90;99.90
64689;DHT22;62504;46.070;14.492;2023-09-18T02:11:46;18.80;99.90
64689;DHT22;62504;46.070;14.492;2023-09-18T02:14:13;18.80;99.90
64689;DHT22;62504;46.070;14.492;2023-09-18T02:16:40;18.80;99.90
64689;DHT22;62504;46.070;14.492;2023-09-18T02:19:07;18.80;99.90
64689;DHT22;62504;46.070;14.492;2023-09-18T02:21:34;18.90;99.90
64689;DHT22;62504;46.070;14.492;2023-09-18T02:24:00;18.90;99.90
64689;DHT22;62504;46.070;14.492;2023-09-18T02:26:26;18.80;99.90
64689;DHT22;62504;46.070;14.492;2023-09-18T02:28:53;18.70;99.90
64689;DHT22;62504;46.070;14.492;2023-09-18T02:31:20;18.70;99.90
64689;DHT22;62504;46.070;14.492;2023-09-18T02:33:45;18.60;99.90
64689;DHT22;62504;46.070;14.492;2023-09-18T02:36:12;18.50;99.90
64689;DHT22;62504;46.070;14.492;2023-09-18T02:38:38;18.40;99.90
64689;DHT22;62504;46.070;14.492;2023-09-18T02:41:04;18.40;99.90
64689;DHT22;62504;46.070;14.492;2023-09-18T02:43:29;18.40;99.90
64689;DHT22;62504;46.070;14.492;2023-09-18T02:45:55;18.50;99.90
64689;DHT22;62504;46.070;14.492;2023-09-18T02:48:21;18.50;99.90
64689;DHT22;62504;46.070;14.492;2023-09-18T02:50:46;18.40;99.90
64689;DHT22;62504;46.070;14.492;2023-09-18T02:53:20;18.50;99.90
64689;DHT22;62504;46.070;14.492;2023-09-18T02:55:49;18.40;99.90
64689;DHT22;62504;46.070;14.492;2023-09-18T02:58:15;18.60;99.90
64689;DHT22;62504;46.070;14.492;2023-09-18T03:00:42;18.60;99.90
64689;DHT22;62504;46.070;14.492;2023-09-18T03:03:11;18.60;99.90
64689;DHT22;62504;46.070;14.492;2023-09-18T03:05:37;18.60;99.90
64689;DHT22;62504;46.070;14.492;2023-09-18T03:08:03;18.50;99.90
64689;DHT22;62504;46.070;14.492;2023-09-18T03:10:37;18.60;99.90
64689;DHT22;62504;46.070;14.492;2023-09-18T03:13:03;18.60;99.90
64689;DHT22;62504;46.070;14.492;2023-09-18T03:15:30;18.60;99.90
64689;DHT22;62504;46.070;14.492;2023-09-18T03:17:57;18.60;99.90
64689;DHT22;62504;46.070;14.492;2023-09-18T03:20:26;18.60;99.90
64689;DHT22;62504;46.070;14.492;2023-09-18T03:22:53;18.60;99.90
64689;DHT22;62504;46.070;14.492;2023-09-18T03:25:19;18.60;99.90
64689;DHT22;62504;46.070;14.492;2023-09-18T03:27:45;18.50;99.90
64689;DHT22;62504;46.070;14.492;2023-09-18T03:30:11;18.50;99.90
64689;DHT22;62504;46.070;14.492;2023-09-18T03:32:42;18.50;99.90
64689;DHT22;62504;46.070;14.492;2023-09-18T03:35:09;18.50;99.90
64689;DHT22;62504;46.070;14.492;2023-09-18T03:37:46;18.50;99.90
64689;DHT22;62504;46.070;14.492;2023-09-18T03:40:12;18.50;99.90
64689;DHT22;62504;46.070;14.492;2023-09-18T03:42:38;18.40;99.90
64689;DHT22;62504;46.070;14.492;2023-09-18T03:45:07;18.40;99.90
64689;DHT22;62504;46.070;14.492;2023-09-18T03:47:38;18.50;99.90
64689;DHT22;62504;46.070;14.492;2023-09-18T03:50:08;18.40;99.90
64689;DHT22;62504;46.070;14.492;2023-09-18T03:52:34;18.40;99.90
64689;DHT22;62504;46.070;14.492;2023-09-18T03:54:59;18.30;99.90
64689;DHT22;62504;46.070;14.492;2023-09-18T03:57:25;18.30;99.90
64689;DHT22;62504;46.070;14.492;2023-09-18T03:59:51;18.30;99.90
64689;DHT22;62504;46.070;14.492;2023-09-18T04:02:16;18.20;99.90
64689;DHT22;62504;46.070;14.492;2023-09-18T04:04:42;18.30;99.90
64689;DHT22;62504;46.070;14.492;2023-09-18T04:07:09;18.20;99.90
64689;DHT22;62504;46.070;14.492;2023-09-18T04:09:34;17.80;99.90
64689;DHT22;62504;46.070;14.492;2023-09-18T04:12:04;18.30;99.90
64689;DHT22;62504;46.070;14.492;2023-09-18T04:14:31;18.30;99.90
64689;DHT22;62504;46.070;14.492;2023-09-18T04:16:57;18.20;99.90
64689;DHT22;62504;46.070;14.492;2023-09-18T04:19:23;18.20;99.90
64689;DHT22;62504;46.070;14.492;2023-09-18T04:21:49;18.20;99.90
64689;DHT22;62504;46.070;14.492;2023-09-18T04:24:14;18.20;99.90
64689;DHT22;62504;46.070;14.492;2023-09-18T04:26:40;18.20;99.90
64689;DHT22;62504;46.070;14.492;2023-09-18T04:29:06;18.20;99.90
64689;DHT22;62504;46.070;14.492;2023-09-18T04:31:32;18.20;99.90
64689;DHT22;62504;46.070;14.492;2023-09-18T04:33:57;18.10;99.90
64689;DHT22;62504;46.070;14.492;2023-09-18T04:36:23;18.10;99.90
64689;DHT22;62504;46.070;14.492;2023-09-18T04:38:50;18.10;99.90
64689;DHT22;62504;46.070;14.492;2023-09-18T04:41:16;18.00;99.90
64689;DHT22;62504;46.070;14.492;2023-09-18T04:43:42;18.00;99.90
64689;DHT22;62504;46.070;14.492;2023-09-18T04:46:10;18.00;99.90
64689;DHT22;62504;46.070;14.492;2023-09-18T04:48:36;18.10;99.90
64689;DHT22;62504;46.070;14.492;2023-09-18T04:51:02;18.20;99.90
64689;DHT22;62504;46.070;14.492;2023-09-18T04:53:29;18.10;99.90
64689;DHT22;62504;46.070;14.492;2023-09-18T04:55:55;18.10;99.90
64689;DHT22;62504;46.070;14.492;2023-09-18T04:58:20;18.10;99.90
64689;DHT22;62504;46.070;14.492;2023-09-18T05:00:56;18.10;99.90
64689;DHT22;62504;46.070;14.492;2023-09-18T05:03:22;18.10;99.90
64689;DHT22;62504;46.070;14.492;2023-09-18T05:05:48;18.20;99.90
64689;DHT22;62504;46.070;14.492;2023-09-18T05:08:14;18.30;99.90
64689;DHT22;62504;46.070;14.492;2023-09-18T05:10:40;18.30;99.90
64689;DHT22;62504;46.070;14.492;2023-09-18T05:13:06;18.30;99.90
64689;DHT22;62504;46.070;14.492;2023-09-18T05:15:32;18.30;99.90
64689;DHT22;62504;46.070;14.492;2023-09-18T05:17:59;18.30;99.90
64689;DHT22;62504;46.070;14.492;2023-09-18T05:20:28;18.30;99.90
64689;DHT22;62504;46.070;14.492;2023-09-18T05:22:55;18.40;99.90
64689;DHT22;62504;46.070;14.492;2023-09-18T05:25:22;18.40;99.90
64689;DHT22;62504;46.070;14.492;2023-09-18T05:27:49;18.40;99.90
64689;DHT22;62504;46.070;14.492;2023-09-18T05:30:25;18.40;99.90
64689;DHT22;62504;46.070;14.492;2023-09-18T05:32:54;18.50;99.90
64689;DHT22;62504;46.070;14.492;2023-09-18T05:35:20;18.50;99.90
64689;DHT22;62504;46.070;14.492;2023-09-18T05:37:46;18.50;99.90
64689;DHT22;62504;46.070;14.492;2023-09-18T05:40:13;18.50;99.90
64689;DHT22;62504;46.070;14.492;2023-09-18T05:42:40;18.40;99.90
64689;DHT22;62504;46.070;14.492;2023-09-18T05:45:09;18.40;99.90
64689;DHT22;62504;46.070;14.492;2023-09-18T05:47:36;18.30;99.90
64689;DHT22;62504;46.070;14.492;2023-09-18T05:50:03;18.40;99.90
64689;DHT22;62504;46.070;14.492;2023-09-18T05:52:29;18.40;99.90
64689;DHT22;62504;46.070;14.492;2023-09-18T05:54:55;18.50;99.90
64689;DHT22;62504;46.070;14.492;2023-09-18T05:57:21;18.50;99.90
64689;DHT22;62504;46.070;14.492;2023-09-18T05:59:46;18.50;99.90
64689;DHT22;62504;46.070;14.492;2023-09-18T06:02:13;18.40;99.90
64689;DHT22;62504;46.070;14.492;2023-09-18T06:04:39;18.40;99.90
64689;DHT22;62504;46.070;14.492;2023-09-18T06:07:04;18.50;99.90
64689;DHT22;62504;46.070;14.492;2023-09-18T06:09:30;18.50;99.90
64689;DHT22;62504;46.070;14.492;2023-09-18T06:11:56;18.60;99.90
64689;DHT22;62504;46.070;14.492;2023-09-18T06:14:22;18.70;99.90
64689;DHT22;62504;46.070;14.492;2023-09-18T06:16:48;18.80;99.90
64689;DHT22;62504;46.070;14.492;2023-09-18T06:19:15;18.80;99.90
64689;DHT22;62504;46.070;14.492;2023-09-18T06:21:43;18.80;99.90
64689;DHT22;62504;46.070;14.492;2023-09-18T06:24:09;18.90;99.90
64689;DHT22;62504;46.070;14.492;2023-09-18T06:26:35;18.90;99.90
64689;DHT22;62504;46.070;14.492;2023-09-18T06:29:01;19.00;99.90
64689;DHT22;62504;46.070;14.492;2023-09-18T06:31:28;19.00;99.90
64689;DHT22;62504;46.070;14.492;2023-09-18T06:33:53;19.00;99.90
64689;DHT22;62504;46.070;14.492;2023-09-18T06:36:19;19.10;99.90
64689;DHT22;62504;46.070;14.492;2023-09-18T06:38:45;19.20;99.90
64689;DHT22;62504;46.070;14.492;2023-09-18T06:41:11;19.20;99.90
64689;DHT22;62504;46.070;14.492;2023-09-18T06:43:36;19.20;99.90
64689;DHT22;62504;46.070;14.492;2023-09-18T06:46:02;19.30;99.90
64689;DHT22;62504;46.070;14.492;2023-09-18T06:48:27;19.30;99.90
64689;DHT22;62504;46.070;14.492;2023-09-18T06:50:58;19.30;99.90
64689;DHT22;62504;46.070;14.492;2023-09-18T06:53:26;19.40;99.90
64689;DHT22;62504;46.070;14.492;2023-09-18T06:55:53;19.50;99.90
64689;DHT22;62504;46.070;14.492;2023-09-18T06:58:19;19.60;99.90
64689;DHT22;62504;46.070;14.492;2023-09-18T07:00:44;19.70;99.90
64689;DHT22;62504;46.070;14.492;2023-09-18T07:03:10;19.80;99.90
64689;DHT22;62504;46.070;14.492;2023-09-18T07:05:37;19.90;99.90
64689;DHT22;62504;46.070;14.492;2023-09-18T07:08:03;20.00;99.90
64689;DHT22;62504;46.070;14.492;2023-09-18T07:10:31;20.10;99.90
64689;DHT22;62504;46.070;14.492;2023-09-18T07:12:58;20.10;99.90
64689;DHT22;62504;46.070;14.492;2023-09-18T07:15:24;20.10;99.90
64689;DHT22;62504;46.070;14.492;2023-09-18T07:17:49;20.20;99.90
64689;DHT22;62504;46.070;14.492;2023-09-18T07:20:15;20.30;99.90
64689;DHT22;62504;46.070;14.492;2023-09-18T07:22:46;20.40;99.90
64689;DHT22;62504;46.070;14.492;2023-09-18T07:25:13;20.40;99.90
64689;DHT22;62504;46.070;14.492;2023-09-18T07:27:38;20.50;99.90
64689;DHT22;62504;46.070;14.492;2023-09-18T07:30:10;20.60;99.90
64689;DHT22;62504;46.070;14.492;2023-09-18T07:32:36;20.80;99.90
64689;DHT22;62504;46.070;14.492;2023-09-18T07:35:02;20.90;99.90
64689;DHT22;62504;46.070;14.492;2023-09-18T07:37:30;20.90;99.90
64689;DHT22;62504;46.070;14.492;2023-09-18T07:39:56;21.10;99.90
64689;DHT22;62504;46.070;14.492;2023-09-18T07:42:26;21.10;99.90
64689;DHT22;62504;46.070;14.492;2023-09-18T07:44:53;21.20;99.90
64689;DHT22;62504;46.070;14.492;2023-09-18T07:47:19;21.30;99.90
64689;DHT22;62504;46.070;14.492;2023-09-18T07:49:45;21.50;99.90
64689;DHT22;62504;46.070;14.492;2023-09-18T07:52:11;21.70;99.90
64689;DHT22;62504;46.070;14.492;2023-09-18T07:54:36;21.80;99.90
64689;DHT22;62504;46.070;14.492;2023-09-18T07:57:02;21.90;99.90
64689;DHT22;62504;46.070;14.492;2023-09-18T07:59:28;22.00;99.90
64689;DHT22;62504;46.070;14.492;2023-09-18T08:01:53;22.00;99.90
64689;DHT22;62504;46.070;14.492;2023-09-18T08:04:20;21.90;99.90
64689;DHT22;62504;46.070;14.492;2023-09-18T08:06:46;21.90;99.90
64689;DHT22;62504;46.070;14.492;2023-09-18T08:09:13;21.80;99.90
64689;DHT22;62504;46.070;14.492;2023-09-18T08:11:48;21.80;99.90
64689;DHT22;62504;46.070;14.492;2023-09-18T08:14:15;21.60;99.90
64689;DHT22;62504;46.070;14.492;2023-09-18T08:16:42;21.70;99.90
64689;DHT22;62504;46.070;14.492;2023-09-18T08:19:08;22.00;99.90
64689;DHT22;62504;46.070;14.492;2023-09-18T08:21:35;22.20;99.90
64689;DHT22;62504;46.070;14.492;2023-09-18T08:24:00;22.40;99.90
64689;DHT22;62504;46.070;14.492;2023-09-18T08:26:26;22.50;99.90
64689;DHT22;62504;46.070;14.492;2023-09-18T08:28:53;22.50;99.90
64689;DHT22;62504;46.070;14.492;2023-09-18T08:31:19;22.70;99.90
64689;DHT22;62504;46.070;14.492;2023-09-18T08:33:45;22.90;99.90
64689;DHT22;62504;46.070;14.492;2023-09-18T08:36:10;22.90;99.90
64689;DHT22;62504;46.070;14.492;2023-09-18T08:38:36;22.60;99.90
64689;DHT22;62504;46.070;14.492;2023-09-18T08:41:02;22.50;99.90
64689;DHT22;62504;46.070;14.492;2023-09-18T08:43:29;22.40;99.90
64689;DHT22;62504;46.070;14.492;2023-09-18T08:45:56;22.50;99.90
64689;DHT22;62504;46.070;14.492;2023-09-18T08:48:28;22.40;99.90
64689;DHT22;62504;46.070;14.492;2023-09-18T08:51:02;22.30;99.90
64689;DHT22;62504;46.070;14.492;2023-09-18T08:53:31;22.30;99.90
64689;DHT22;62504;46.070;14.492;2023-09-18T08:55:58;22.40;99.90
64689;DHT22;62504;46.070;14.492;2023-09-18T08:58:28;22.50;99.90
64689;DHT22;62504;46.070;14.492;2023-09-18T09:00:57;22.80;99.90
64689;DHT22;62504;46.070;14.492;2023-09-18T09:03:23;22.90;99.90
64689;DHT22;62504;46.070;14.492;2023-09-18T09:05:49;23.00;99.90
64689;DHT22;62504;46.070;14.492;2023-09-18T09:08:15;23.00;99.90
64689;DHT22;62504;46.070;14.492;2023-09-18T09:10:41;22.90;99.90
64689;DHT22;62504;46.070;14.492;2023-09-18T09:13:06;22.90;99.90
64689;DHT22;62504;46.070;14.492;2023-09-18T09:15:43;22.80;99.90
64689;DHT22;62504;46.070;14.492;2023-09-18T09:18:12;22.80;99.90
64689;DHT22;62504;46.070;14.492;2023-09-18T09:20:40;22.80;99.90
64689;DHT22;62504;46.070;14.492;2023-09-18T09:23:08;22.70;99.90
64689;DHT22;62504;46.070;14.492;2023-09-18T09:25:35;22.70;99.90
64689;DHT22;62504;46.070;14.492;2023-09-18T09:28:06;22.60;99.90
64689;DHT22;62504;46.070;14.492;2023-09-18T09:30:34;22.60;99.90
64689;DHT22;62504;46.070;14.492;2023-09-18T09:33:02;22.50;99.90
64689;DHT22;62504;46.070;14.492;2023-09-18T09:35:33;22.50;99.90
64689;DHT22;62504;46.070;14.492;2023-09-18T09:38:01;22.50;99.90
64689;DHT22;62504;46.070;14.492;2023-09-18T09:40:32;22.50;99.90
64689;DHT22;62504;46.070;14.492;2023-09-18T09:42:58;22.50;99.90
64689;DHT22;62504;46.070;14.492;2023-09-18T09:45:31;22.50;99.90
64689;DHT22;62504;46.070;14.492;2023-09-18T09:48:05;22.50;99.90
64689;DHT22;62504;46.070;14.492;2023-09-18T09:50:32;22.60;99.90
64689;DHT22;62504;46.070;14.492;2023-09-18T09:52:58;22.60;99.90
64689;DHT22;62504;46.070;14.492;2023-09-18T09:55:28;22.60;99.90
64689;DHT22;62504;46.070;14.492;2023-09-18T09:57:56;22.70;99.90
64689;DHT22;62504;46.070;14.492;2023-09-18T10:00:27;22.80;99.90
64689;DHT22;62504;46.070;14.492;2023-09-18T10:03:00;22.90;99.90
64689;DHT22;62504;46.070;14.492;2023-09-18T10:05:29;23.20;99.90
64689;DHT22;62504;46.070;14.492;2023-09-18T10:08:00;23.30;99.90
64689;DHT22;62504;46.070;14.492;2023-09-18T10:10:32;23.40;99.90
64689;DHT22;62504;46.070;14.492;2023-09-18T10:13:12;23.50;99.90
64689;DHT22;62504;46.070;14.492;2023-09-18T10:15:41;23.40;99.90
64689;DHT22;62504;46.070;14.492;2023-09-18T10:18:39;23.40;99.90
64689;DHT22;62504;46.070;14.492;2023-09-18T10:21:14;23.50;99.90
64689;DHT22;62504;46.070;14.492;2023-09-18T10:26:35;23.20;99.90
64689;DHT22;62504;46.070;14.492;2023-09-18T10:29:04;23.20;99.90
64689;DHT22;62504;46.070;14.492;2023-09-18T10:31:34;23.10;99.90
64689;DHT22;62504;46.070;14.492;2023-09-18T10:34:03;23.10;99.90
64689;DHT22;62504;46.070;14.492;2023-09-18T10:36:31;23.20;99.90
64689;DHT22;62504;46.070;14.492;2023-09-18T10:38:58;23.10;99.90
64689;DHT22;62504;46.070;14.492;2023-09-18T10:41:26;23.10;99.90
64689;DHT22;62504;46.070;14.492;2023-09-18T10:43:53;23.10;99.90
64689;DHT22;62504;46.070;14.492;2023-09-18T10:46:22;23.10;99.90
64689;DHT22;62504;46.070;14.492;2023-09-18T10:48:48;23.10;99.90
64689;DHT22;62504;46.070;14.492;2023-09-18T10:51:14;23.10;99.90
64689;DHT22;62504;46.070;14.492;2023-09-18T10:53:40;23.20;99.90
64689;DHT22;62504;46.070;14.492;2023-09-18T10:56:06;23.10;99.90
64689;DHT22;62504;46.070;14.492;2023-09-18T10:58:33;23.10;99.90
64689;DHT22;62504;46.070;14.492;2023-09-18T11:01:22;23.20;99.90
64689;DHT22;62504;46.070;14.492;2023-09-18T11:03:50;23.10;99.90
64689;DHT22;62504;46.070;14.492;2023-09-18T11:06:16;23.10;99.90
64689;DHT22;62504;46.070;14.492;2023-09-18T11:08:43;23.00;99.90
64689;DHT22;62504;46.070;14.492;2023-09-18T11:11:11;23.10;99.90
64689;DHT22;62504;46.070;14.492;2023-09-18T11:13:47;23.00;99.90
64689;DHT22;62504;46.070;14.492;2023-09-18T11:18:42;23.00;99.90
64689;DHT22;62504;46.070;14.492;2023-09-18T11:21:09;23.10;99.90
64689;DHT22;62504;46.070;14.492;2023-09-18T11:23:38;23.10;99.90
64689;DHT22;62504;46.070;14.492;2023-09-18T11:26:07;23.20;99.90
64689;DHT22;62504;46.070;14.492;2023-09-18T11:28:33;23.20;99.90
64689;DHT22;62504;46.070;14.492;2023-09-18T11:30:59;23.30;99.90
64689;DHT22;62504;46.070;14.492;2023-09-18T11:33:39;23.30;99.90
64689;DHT22;62504;46.070;14.492;2023-09-18T11:36:28;23.30;99.90
64689;DHT22;62504;46.070;14.492;2023-09-18T11:38:58;23.40;99.90
64689;DHT22;62504;46.070;14.492;2023-09-18T11:41:32;23.40;99.90
64689;DHT22;62504;46.070;14.492;2023-09-18T11:46:53;23.30;99.90
64689;DHT22;62504;46.070;14.492;2023-09-18T11:49:24;23.30;99.90
64689;DHT22;62504;46.070;14.492;2023-09-18T11:51:54;23.30;99.90
64689;DHT22;62504;46.070;14.492;2023-09-18T11:54:20;23.30;99.90
64689;DHT22;62504;46.070;14.492;2023-09-18T11:56:48;23.40;99.90
64689;DHT22;62504;46.070;14.492;2023-09-18T11:59:14;23.40;99.90
64689;DHT22;62504;46.070;14.492;2023-09-18T12:01:40;23.50;99.90
64689;DHT22;62504;46.070;14.492;2023-09-18T12:04:06;23.50;99.90
64689;DHT22;62504;46.070;14.492;2023-09-18T12:06:39;23.50;99.90
64689;DHT22;62504;46.070;14.492;2023-09-18T12:09:06;23.50;99.90
64689;DHT22;62504;46.070;14.492;2023-09-18T12:11:33;23.50;99.90
64689;DHT22;62504;46.070;14.492;2023-09-18T12:14:03;23.60;99.90
64689;DHT22;62504;46.070;14.492;2023-09-18T12:16:30;23.60;99.90
64689;DHT22;62504;46.070;14.492;2023-09-18T12:18:55;23.50;99.90
64689;DHT22;62504;46.070;14.492;2023-09-18T12:21:22;23.50;99.90
64689;DHT22;62504;46.070;14.492;2023-09-18T12:23:48;23.50;99.90
64689;DHT22;62504;46.070;14.492;2023-09-18T12:26:15;23.50;99.90
64689;DHT22;62504;46.070;14.492;2023-09-18T12:28:43;23.50;99.90
64689;DHT22;62504;46.070;14.492;2023-09-18T12:31:12;23.40;99.90
64689;DHT22;62504;46.070;14.492;2023-09-18T12:33:40;23.40;99.90
64689;DHT22;62504;46.070;14.492;2023-09-18T12:36:07;23.40;99.90
64689;DHT22;62504;46.070;14.492;2023-09-18T12:38:37;23.50;99.90
64689;DHT22;62504;46.070;14.492;2023-09-18T12:41:04;23.50;99.90
64689;DHT22;62504;46.070;14.492;2023-09-18T12:43:38;23.40;99.90
64689;DHT22;62504;46.070;14.492;2023-09-18T12:46:05;23.50;99.90
64689;DHT22;62504;46.070;14.492;2023-09-18T12:48:32;23.40;99.90
64689;DHT22;62504;46.070;14.492;2023-09-18T12:51:05;23.40;99.90
64689;DHT22;62504;46.070;14.492;2023-09-18T12:53:31;23.40;99.90
64689;DHT22;62504;46.070;14.492;2023-09-18T12:56:08;23.40;99.90
64689;DHT22;62504;46.070;14.492;2023-09-18T12:58:35;23.40;99.90
64689;DHT22;62504;46.070;14.492;2023-09-18T13:01:05;23.50;99.90
64689;DHT22;62504;46.070;14.492;2023-09-18T13:03:45;23.50;99.90
64689;DHT22;62504;46.070;14.492;2023-09-18T13:06:16;23.50;99.90
64689;DHT22;62504;46.070;14.492;2023-09-18T13:08:49;23.50;99.90
64689;DHT22;62504;46.070;14.492;2023-09-18T13:11:17;23.60;99.90
64689;DHT22;62504;46.070;14.492;2023-09-18T13:13:43;23.60;99.90
64689;DHT22;62504;46.070;14.492;2023-09-18T13:16:11;23.60;99.90
64689;DHT22;62504;46.070;14.492;2023-09-18T13:18:39;23.70;99.90
64689;DHT22;62504;46.070;14.492;2023-09-18T13:21:14;23.70;99.90
64689;DHT22;62504;46.070;14.492;2023-09-18T13:23:40;23.70;99.90
64689;DHT22;62504;46.070;14.492;2023-09-18T13:26:07;23.70;99.90
64689;DHT22;62504;46.070;14.492;2023-09-18T13:28:34;23.60;99.90
64689;DHT22;62504;46.070;14.492;2023-09-18T13:31:02;23.60;99.90
64689;DHT22;62504;46.070;14.492;2023-09-18T13:33:33;23.60;99.90
64689;DHT22;62504;46.070;14.492;2023-09-18T13:35:59;23.60;99.90
64689;DHT22;62504;46.070;14.492;2023-09-18T13:38:25;23.60;99.90
64689;DHT22;62504;46.070;14.492;2023-09-18T13:40:53;23.50;99.90
64689;DHT22;62504;46.070;14.492;2023-09-18T13:43:20;23.60;99.90
64689;DHT22;62504;46.070;14.492;2023-09-18T13:45:48;23.60;99.90
64689;DHT22;62504;46.070;14.492;2023-09-18T13:48:17;23.60;99.90
64689;DHT22;62504;46.070;14.492;2023-09-18T13:50:44;23.70;99.90
64689;DHT22;62504;46.070;14.492;2023-09-18T13:53:10;23.70;99.90
64689;DHT22;62504;46.070;14.492;2023-09-18T13:55:36;23.80;99.90
64689;DHT22;62504;46.070;14.492;2023-09-18T13:58:02;23.80;99.90
64689;DHT22;62504;46.070;14.492;2023-09-18T14:00:31;23.80;99.90
64689;DHT22;62504;46.070;14.492;2023-09-18T14:02:58;23.90;99.90
64689;DHT22;62504;46.070;14.492;2023-09-18T14:05:23;23.90;99.90
64689;DHT22;62504;46.070;14.492;2023-09-18T14:07:51;23.90;99.90
64689;DHT22;62504;46.070;14.492;2023-09-18T14:10:16;23.90;99.90
64689;DHT22;62504;46.070;14.492;2023-09-18T14:12:44;24.00;99.90
64689;DHT22;62504;46.070;14.492;2023-09-18T14:15:10;23.90;99.90
64689;DHT22;62504;46.070;14.492;2023-09-18T14:17:36;24.00;99.90
64689;DHT22;62504;46.070;14.492;2023-09-18T14:20:06;23.90;99.90
64689;DHT22;62504;46.070;14.492;2023-09-18T14:22:35;23.90;99.90
64689;DHT22;62504;46.070;14.492;2023-09-18T14:25:01;23.90;99.90
64689;DHT22;62504;46.070;14.492;2023-09-18T14:27:34;23.80;99.90
64689;DHT22;62504;46.070;14.492;2023-09-18T14:30:00;23.80;99.90
64689;DHT22;62504;46.070;14.492;2023-09-18T14:32:29;23.70;99.90
64689;DHT22;62504;46.070;14.492;2023-09-18T14:34:55;23.70;99.90
64689;DHT22;62504;46.070;14.492;2023-09-18T14:37:20;23.70;99.90
64689;DHT22;62504;46.070;14.492;2023-09-18T14:39:46;23.70;99.90
64689;DHT22;62504;46.070;14.492;2023-09-18T14:42:12;23.70;99.90
64689;DHT22;62504;46.070;14.492;2023-09-18T14:44:38;23.70;99.90
64689;DHT22;62504;46.070;14.492;2023-09-18T14:47:10;23.70;99.90
64689;DHT22;62504;46.070;14.492;2023-09-18T14:49:36;23.70;99.90
64689;DHT22;62504;46.070;14.492;2023-09-18T14:52:02;23.70;99.90
64689;DHT22;62504;46.070;14.492;2023-09-18T14:54:29;23.70;99.90
64689;DHT22;62504;46.070;14.492;2023-09-18T14:56:54;23.70;99.90
64689;DHT22;62504;46.070;14.492;2023-09-18T14:59:20;23.80;99.90
64689;DHT22;62504;46.070;14.492;2023-09-18T15:01:45;23.80;99.90
64689;DHT22;62504;46.070;14.492;2023-09-18T15:04:13;23.80;99.90
64689;DHT22;62504;46.070;14.492;2023-09-18T15:06:39;23.80;99.90
64689;DHT22;62504;46.070;14.492;2023-09-18T15:09:04;23.90;99.90
64689;DHT22;62504;46.070;14.492;2023-09-18T15:11:33;23.90;99.90
64689;DHT22;62504;46.070;14.492;2023-09-18T15:14:01;23.80;99.90
64689;DHT22;62504;46.070;14.492;2023-09-18T15:16:27;23.80;99.90
64689;DHT22;62504;46.070;14.492;2023-09-18T15:18:55;23.80;99.90
64689;DHT22;62504;46.070;14.492;2023-09-18T15:21:20;23.80;99.90
64689;DHT22;62504;46.070;14.492;2023-09-18T15:23:46;23.80;99.90
64689;DHT22;62504;46.070;14.492;2023-09-18T15:26:11;23.80;99.90